sensor_id;sensor_type;location;lat;lon;timestamp;temperature;humidity
76263;DHT22;65080;50.908;6.916;2023-07-09T00:01:54;25.30;54.30
76263;DHT22;65080;50.908;6.916;2023-07-09T00:04:22;25.30;54.30
76263;DHT22;65080;50.908;6.916;2023-07-09T00:06:51;25.30;54.40
76263;DHT22;65080;50.908;6.916;2023-07-09T00:09:21;25.20;54.50
76263;DHT22;65080;50.908;6.916;2023-07-09T00:11:49;25.10;54.60
76263;DHT22;65080;50.908;6.916;2023-07-09T00:14:18;25.20;54.90
76263;DHT22;65080;50.908;6.916;2023-07-09T00:16:48;25.10;55.50
76263;DHT22;65080;50.908;6.916;2023-07-09T00:19:20;25.10;55.10
76263;DHT22;65080;50.908;6.916;2023-07-09T00:21:50;25.10;55.10
76263;DHT22;65080;50.908;6.916;2023-07-09T00:24:20;25.00;55.10
76263;DHT22;65080;50.908;6.916;2023-07-09T00:26:49;25.00;55.10
76263;DHT22;65080;50.908;6.916;2023-07-09T00:29:18;25.00;55.20
76263;DHT22;65080;50.908;6.916;2023-07-09T00:31:48;25.00;55.30
76263;DHT22;65080;50.908;6.916;2023-07-09T00:34:16;24.90;55.40
76263;DHT22;65080;50.908;6.916;2023-07-09T00:36:49;24.90;55.50
76263;DHT22;65080;50.908;6.916;2023-07-09T00:39:18;24.80;55.60
76263;DHT22;65080;50.908;6.916;2023-07-09T00:41:48;24.70;55.70
76263;DHT22;65080;50.908;6.916;2023-07-09T00:44:25;24.70;55.90
76263;DHT22;65080;50.908;6.916;2023-07-09T00:47:26;24.70;56.00
76263;DHT22;65080;50.908;6.916;2023-07-09T00:50:03;24.70;56.20
76263;DHT22;65080;50.908;6.916;2023-07-09T00:52:35;24.60;56.20
76263;DHT22;65080;50.908;6.916;2023-07-09T00:55:08;24.60;56.90
76263;DHT22;65080;50.908;6.916;2023-07-09T00:57:39;24.60;56.30
76263;DHT22;65080;50.908;6.916;2023-07-09T01:00:12;24.60;56.30
76263;DHT22;65080;50.908;6.916;2023-07-09T01:02:45;24.60;56.50
76263;DHT22;65080;50.908;6.916;2023-07-09T01:05:16;24.60;56.50
76263;DHT22;65080;50.908;6.916;2023-07-09T01:07:47;24.60;56.50
76263;DHT22;65080;50.908;6.916;2023-07-09T01:10:17;24.60;56.50
76263;DHT22;65080;50.908;6.916;2023-07-09T01:12:48;24.50;56.50
76263;DHT22;65080;50.908;6.916;2023-07-09T01:15:18;24.50;56.60
76263;DHT22;65080;50.908;6.916;2023-07-09T01:17:47;24.50;56.70
76263;DHT22;65080;50.908;6.916;2023-07-09T01:20:21;24.50;56.80
76263;DHT22;65080;50.908;6.916;2023-07-09T01:22:51;24.40;56.80
76263;DHT22;65080;50.908;6.916;2023-07-09T01:25:22;24.40;56.80
76263;DHT22;65080;50.908;6.916;2023-07-09T01:27:51;24.40;56.90
76263;DHT22;65080;50.908;6.916;2023-07-09T01:30:22;24.30;56.90
76263;DHT22;65080;50.908;6.916;2023-07-09T01:32:51;24.30;57.00
76263;DHT22;65080;50.908;6.916;2023-07-09T01:35:24;24.20;57.10
76263;DHT22;65080;50.908;6.916;2023-07-09T01:37:54;24.20;57.20
76263;DHT22;65080;50.908;6.916;2023-07-09T01:40:24;24.20;57.40
76263;DHT22;65080;50.908;6.916;2023-07-09T01:42:59;24.20;57.60
76263;DHT22;65080;50.908;6.916;2023-07-09T01:45:28;24.10;57.50
76263;DHT22;65080;50.908;6.916;2023-07-09T01:47:56;24.10;57.60
76263;DHT22;65080;50.908;6.916;2023-07-09T01:50:25;24.10;57.70
76263;DHT22;65080;50.908;6.916;2023-07-09T01:52:55;24.00;57.70
76263;DHT22;65080;50.908;6.916;2023-07-09T01:55:24;24.00;58.00
76263;DHT22;65080;50.908;6.916;2023-07-09T01:57:52;24.00;58.00
76263;DHT22;65080;50.908;6.916;2023-07-09T02:00:21;23.90;58.00
76263;DHT22;65080;50.908;6.916;2023-07-09T02:02:49;23.90;58.10
76263;DHT22;65080;50.908;6.916;2023-07-09T02:05:20;23.90;58.20
76263;DHT22;65080;50.908;6.916;2023-07-09T02:07:48;23.90;58.40
76263;DHT22;65080;50.908;6.916;2023-07-09T02:10:18;23.80;58.30
76263;DHT22;65080;50.908;6.916;2023-07-09T02:12:47;23.80;58.60
76263;DHT22;65080;50.908;6.916;2023-07-09T02:15:16;23.80;58.70
76263;DHT22;65080;50.908;6.916;2023-07-09T02:17:45;23.80;58.60
76263;DHT22;65080;50.908;6.916;2023-07-09T02:20:13;23.80;58.80
76263;DHT22;65080;50.908;6.916;2023-07-09T02:22:42;23.80;58.80
76263;DHT22;65080;50.908;6.916;2023-07-09T02:25:11;23.70;58.90
76263;DHT22;65080;50.908;6.916;2023-07-09T02:27:40;23.70;59.10
76263;DHT22;65080;50.908;6.916;2023-07-09T02:30:09;23.60;59.80
76263;DHT22;65080;50.908;6.916;2023-07-09T02:32:39;23.60;59.40
76263;DHT22;65080;50.908;6.916;2023-07-09T02:35:08;23.50;59.40
76263;DHT22;65080;50.908;6.916;2023-07-09T02:37:37;23.50;59.50
76263;DHT22;65080;50.908;6.916;2023-07-09T02:40:08;23.40;59.60
76263;DHT22;65080;50.908;6.916;2023-07-09T02:42:36;23.40;60.50
76263;DHT22;65080;50.908;6.916;2023-07-09T02:45:07;23.40;60.00
76263;DHT22;65080;50.908;6.916;2023-07-09T02:47:35;23.40;60.20
76263;DHT22;65080;50.908;6.916;2023-07-09T02:50:04;23.40;60.20
76263;DHT22;65080;50.908;6.916;2023-07-09T02:52:33;23.40;60.20
76263;DHT22;65080;50.908;6.916;2023-07-09T02:55:01;23.40;60.30
76263;DHT22;65080;50.908;6.916;2023-07-09T02:57:29;23.40;60.40
76263;DHT22;65080;50.908;6.916;2023-07-09T02:59:57;23.40;60.40
76263;DHT22;65080;50.908;6.916;2023-07-09T03:02:27;23.30;60.40
76263;DHT22;65080;50.908;6.916;2023-07-09T03:04:55;23.30;60.40
76263;DHT22;65080;50.908;6.916;2023-07-09T03:07:23;23.30;60.50
76263;DHT22;65080;50.908;6.916;2023-07-09T03:09:52;23.30;60.50
76263;DHT22;65080;50.908;6.916;2023-07-09T03:12:20;23.20;60.60
76263;DHT22;65080;50.908;6.916;2023-07-09T03:14:48;23.20;60.70
76263;DHT22;65080;50.908;6.916;2023-07-09T03:17:17;23.20;60.90
76263;DHT22;65080;50.908;6.916;2023-07-09T03:19:46;23.20;61.00
76263;DHT22;65080;50.908;6.916;2023-07-09T03:22:15;23.10;61.00
76263;DHT22;65080;50.908;6.916;2023-07-09T03:24:43;23.10;61.10
76263;DHT22;65080;50.908;6.916;2023-07-09T03:27:12;23.10;61.20
76263;DHT22;65080;50.908;6.916;2023-07-09T03:29:40;23.10;62.10
76263;DHT22;65080;50.908;6.916;2023-07-09T03:32:08;23.00;61.50
76263;DHT22;65080;50.908;6.916;2023-07-09T03:34:37;23.00;61.60
76263;DHT22;65080;50.908;6.916;2023-07-09T03:37:06;23.00;61.70
76263;DHT22;65080;50.908;6.916;2023-07-09T03:39:34;23.00;61.90
76263;DHT22;65080;50.908;6.916;2023-07-09T03:42:03;23.00;61.90
76263;DHT22;65080;50.908;6.916;2023-07-09T03:44:31;23.00;62.00
76263;DHT22;65080;50.908;6.916;2023-07-09T03:47:00;23.00;62.00
76263;DHT22;65080;50.908;6.916;2023-07-09T03:49:28;23.00;62.00
76263;DHT22;65080;50.908;6.916;2023-07-09T03:51:56;23.00;62.00
76263;DHT22;65080;50.908;6.916;2023-07-09T03:54:27;23.00;62.10
76263;DHT22;65080;50.908;6.916;2023-07-09T03:56:55;23.00;62.10
76263;DHT22;65080;50.908;6.916;2023-07-09T03:59:23;23.00;62.20
76263;DHT22;65080;50.908;6.916;2023-07-09T04:01:51;23.00;62.90
76263;DHT22;65080;50.908;6.916;2023-07-09T04:04:20;22.90;62.20
76263;DHT22;65080;50.908;6.916;2023-07-09T04:06:48;22.90;62.30
76263;DHT22;65080;50.908;6.916;2023-07-09T04:09:16;22.90;62.40
76263;DHT22;65080;50.908;6.916;2023-07-09T04:11:46;22.90;62.50
76263;DHT22;65080;50.908;6.916;2023-07-09T04:14:14;22.90;62.60
76263;DHT22;65080;50.908;6.916;2023-07-09T04:16:43;22.90;62.60
76263;DHT22;65080;50.908;6.916;2023-07-09T04:19:11;22.90;62.70
76263;DHT22;65080;50.908;6.916;2023-07-09T04:21:39;22.80;62.60
76263;DHT22;65080;50.908;6.916;2023-07-09T04:24:07;22.80;62.70
76263;DHT22;65080;50.908;6.916;2023-07-09T04:26:36;22.80;62.80
76263;DHT22;65080;50.908;6.916;2023-07-09T04:29:07;22.80;62.90
76263;DHT22;65080;50.908;6.916;2023-07-09T04:31:35;22.80;63.00
76263;DHT22;65080;50.908;6.916;2023-07-09T04:34:04;22.80;63.10
76263;DHT22;65080;50.908;6.916;2023-07-09T04:36:33;22.80;63.20
76263;DHT22;65080;50.908;6.916;2023-07-09T04:39:02;22.80;63.20
76263;DHT22;65080;50.908;6.916;2023-07-09T04:41:33;22.80;63.90
76263;DHT22;65080;50.908;6.916;2023-07-09T04:44:01;22.80;63.00
76263;DHT22;65080;50.908;6.916;2023-07-09T04:46:30;22.90;63.00
76263;DHT22;65080;50.908;6.916;2023-07-09T04:48:59;22.90;63.00
76263;DHT22;65080;50.908;6.916;2023-07-09T04:51:27;22.90;62.90
76263;DHT22;65080;50.908;6.916;2023-07-09T04:53:56;22.90;62.90
76263;DHT22;65080;50.908;6.916;2023-07-09T04:56:24;23.00;62.90
76263;DHT22;65080;50.908;6.916;2023-07-09T04:58:52;22.90;62.70
76263;DHT22;65080;50.908;6.916;2023-07-09T05:01:20;23.00;62.80
76263;DHT22;65080;50.908;6.916;2023-07-09T05:03:50;23.10;62.70
76263;DHT22;65080;50.908;6.916;2023-07-09T05:06:18;23.10;62.60
76263;DHT22;65080;50.908;6.916;2023-07-09T05:08:47;23.20;63.20
76263;DHT22;65080;50.908;6.916;2023-07-09T05:11:16;23.20;62.50
76263;DHT22;65080;50.908;6.916;2023-07-09T05:13:44;23.20;62.40
76263;DHT22;65080;50.908;6.916;2023-07-09T05:16:13;23.20;62.20
76263;DHT22;65080;50.908;6.916;2023-07-09T05:18:41;23.30;62.10
76263;DHT22;65080;50.908;6.916;2023-07-09T05:21:11;23.30;62.00
76263;DHT22;65080;50.908;6.916;2023-07-09T05:23:39;23.40;62.00
76263;DHT22;65080;50.908;6.916;2023-07-09T05:26:07;23.40;61.90
76263;DHT22;65080;50.908;6.916;2023-07-09T05:28:37;23.50;61.90
76263;DHT22;65080;50.908;6.916;2023-07-09T05:31:05;23.50;61.70
76263;DHT22;65080;50.908;6.916;2023-07-09T05:33:34;23.60;61.70
76263;DHT22;65080;50.908;6.916;2023-07-09T05:36:02;23.70;61.50
76263;DHT22;65080;50.908;6.916;2023-07-09T05:38:32;23.70;61.20
76263;DHT22;65080;50.908;6.916;2023-07-09T05:41:01;23.80;61.10
76263;DHT22;65080;50.908;6.916;2023-07-09T05:43:30;23.80;60.80
76263;DHT22;65080;50.908;6.916;2023-07-09T05:46:01;23.90;60.70
76263;DHT22;65080;50.908;6.916;2023-07-09T05:48:30;24.00;60.60
76263;DHT22;65080;50.908;6.916;2023-07-09T05:50:58;24.00;60.40
76263;DHT22;65080;50.908;6.916;2023-07-09T05:53:26;24.00;60.10
76263;DHT22;65080;50.908;6.916;2023-07-09T05:55:56;24.10;60.00
76263;DHT22;65080;50.908;6.916;2023-07-09T05:58:25;24.20;59.80
76263;DHT22;65080;50.908;6.916;2023-07-09T06:00:54;24.20;59.60
76263;DHT22;65080;50.908;6.916;2023-07-09T06:03:25;24.30;59.60
76263;DHT22;65080;50.908;6.916;2023-07-09T06:05:55;24.30;59.40
76263;DHT22;65080;50.908;6.916;2023-07-09T06:08:24;24.50;59.30
76263;DHT22;65080;50.908;6.916;2023-07-09T06:10:57;24.60;59.10
76263;DHT22;65080;50.908;6.916;2023-07-09T06:13:26;24.70;59.10
76263;DHT22;65080;50.908;6.916;2023-07-09T06:15:58;24.80;58.90
76263;DHT22;65080;50.908;6.916;2023-07-09T06:18:29;24.80;58.70
76263;DHT22;65080;50.908;6.916;2023-07-09T06:20:58;24.90;58.50
76263;DHT22;65080;50.908;6.916;2023-07-09T06:23:27;25.00;58.90
76263;DHT22;65080;50.908;6.916;2023-07-09T06:25:57;25.10;58.20
76263;DHT22;65080;50.908;6.916;2023-07-09T06:28:28;25.10;57.90
76263;DHT22;65080;50.908;6.916;2023-07-09T06:30:57;25.20;57.80
76263;DHT22;65080;50.908;6.916;2023-07-09T06:33:26;25.30;57.70
76263;DHT22;65080;50.908;6.916;2023-07-09T06:35:56;25.30;57.50
76263;DHT22;65080;50.908;6.916;2023-07-09T06:38:25;25.40;57.30
76263;DHT22;65080;50.908;6.916;2023-07-09T06:40:54;25.50;57.20
76263;DHT22;65080;50.908;6.916;2023-07-09T06:43:24;25.60;57.10
76263;DHT22;65080;50.908;6.916;2023-07-09T06:45:55;25.70;56.90
76263;DHT22;65080;50.908;6.916;2023-07-09T06:48:25;25.80;56.50
76263;DHT22;65080;50.908;6.916;2023-07-09T06:50:55;25.80;56.40
76263;DHT22;65080;50.908;6.916;2023-07-09T06:53:24;25.80;56.30
76263;DHT22;65080;50.908;6.916;2023-07-09T06:55:53;25.90;56.30
76263;DHT22;65080;50.908;6.916;2023-07-09T06:58:24;25.90;56.20
76263;DHT22;65080;50.908;6.916;2023-07-09T07:00:52;26.00;56.00
76263;DHT22;65080;50.908;6.916;2023-07-09T07:03:21;26.00;55.90
76263;DHT22;65080;50.908;6.916;2023-07-09T07:05:52;26.00;55.70
76263;DHT22;65080;50.908;6.916;2023-07-09T07:08:22;26.20;55.70
76263;DHT22;65080;50.908;6.916;2023-07-09T07:10:54;26.20;55.50
76263;DHT22;65080;50.908;6.916;2023-07-09T07:13:30;26.30;55.40
76263;DHT22;65080;50.908;6.916;2023-07-09T07:16:00;26.40;55.20
76263;DHT22;65080;50.908;6.916;2023-07-09T07:18:29;26.40;55.00
76263;DHT22;65080;50.908;6.916;2023-07-09T07:20:57;26.50;54.90
76263;DHT22;65080;50.908;6.916;2023-07-09T07:23:26;26.60;54.80
76263;DHT22;65080;50.908;6.916;2023-07-09T07:25:54;26.60;54.60
76263;DHT22;65080;50.908;6.916;2023-07-09T07:28:22;26.60;54.50
76263;DHT22;65080;50.908;6.916;2023-07-09T07:31:03;26.70;54.50
76263;DHT22;65080;50.908;6.916;2023-07-09T07:33:32;26.80;54.30
76263;DHT22;65080;50.908;6.916;2023-07-09T07:36:00;26.80;54.20
76263;DHT22;65080;50.908;6.916;2023-07-09T07:38:31;26.90;54.10
76263;DHT22;65080;50.908;6.916;2023-07-09T07:41:00;27.00;54.00
76263;DHT22;65080;50.908;6.916;2023-07-09T07:43:28;27.10;53.90
76263;DHT22;65080;50.908;6.916;2023-07-09T07:45:57;27.10;53.60
76263;DHT22;65080;50.908;6.916;2023-07-09T07:48:26;27.20;53.70
76263;DHT22;65080;50.908;6.916;2023-07-09T07:50:58;27.20;53.60
76263;DHT22;65080;50.908;6.916;2023-07-09T07:53:28;27.30;53.50
76263;DHT22;65080;50.908;6.916;2023-07-09T07:55:58;27.40;53.90
76263;DHT22;65080;50.908;6.916;2023-07-09T07:58:29;27.60;53.10
76263;DHT22;65080;50.908;6.916;2023-07-09T08:00:58;27.70;52.70
76263;DHT22;65080;50.908;6.916;2023-07-09T08:03:28;27.80;52.30
76263;DHT22;65080;50.908;6.916;2023-07-09T08:05:56;28.00;52.00
76263;DHT22;65080;50.908;6.916;2023-07-09T08:08:28;28.10;51.90
76263;DHT22;65080;50.908;6.916;2023-07-09T08:11:00;28.20;51.70
76263;DHT22;65080;50.908;6.916;2023-07-09T08:13:31;28.20;51.50
76263;DHT22;65080;50.908;6.916;2023-07-09T08:16:00;28.40;51.40
76263;DHT22;65080;50.908;6.916;2023-07-09T08:18:31;28.40;51.20
76263;DHT22;65080;50.908;6.916;2023-07-09T08:21:00;28.50;51.00
76263;DHT22;65080;50.908;6.916;2023-07-09T08:23:28;28.60;50.90
76263;DHT22;65080;50.908;6.916;2023-07-09T08:25:58;28.70;50.90
76263;DHT22;65080;50.908;6.916;2023-07-09T08:28:28;28.80;50.70
76263;DHT22;65080;50.908;6.916;2023-07-09T08:30:57;28.80;50.30
76263;DHT22;65080;50.908;6.916;2023-07-09T08:33:25;28.90;50.30
76263;DHT22;65080;50.908;6.916;2023-07-09T08:35:55;29.00;50.10
76263;DHT22;65080;50.908;6.916;2023-07-09T08:38:24;29.10;49.90
76263;DHT22;65080;50.908;6.916;2023-07-09T08:40:57;29.20;49.50
76263;DHT22;65080;50.908;6.916;2023-07-09T08:43:33;29.40;49.40
76263;DHT22;65080;50.908;6.916;2023-07-09T08:46:09;29.40;49.20
76263;DHT22;65080;50.908;6.916;2023-07-09T08:48:43;29.50;49.10
76263;DHT22;65080;50.908;6.916;2023-07-09T08:51:17;29.70;48.90
76263;DHT22;65080;50.908;6.916;2023-07-09T08:53:50;29.80;48.70
76263;DHT22;65080;50.908;6.916;2023-07-09T08:56:19;29.90;48.50
76263;DHT22;65080;50.908;6.916;2023-07-09T08:58:48;30.00;48.30
76263;DHT22;65080;50.908;6.916;2023-07-09T09:01:20;30.10;48.00
76263;DHT22;65080;50.908;6.916;2023-07-09T09:03:53;30.10;47.60
76263;DHT22;65080;50.908;6.916;2023-07-09T09:06:28;30.20;47.50
76263;DHT22;65080;50.908;6.916;2023-07-09T09:09:05;30.30;47.50
76263;DHT22;65080;50.908;6.916;2023-07-09T09:11:43;30.40;47.40
76263;DHT22;65080;50.908;6.916;2023-07-09T09:14:19;30.50;47.20
76263;DHT22;65080;50.908;6.916;2023-07-09T09:16:50;30.60;47.10
76263;DHT22;65080;50.908;6.916;2023-07-09T09:19:23;30.60;47.20
76263;DHT22;65080;50.908;6.916;2023-07-09T09:21:58;30.70;47.00
76263;DHT22;65080;50.908;6.916;2023-07-09T09:24:36;30.80;46.70
76263;DHT22;65080;50.908;6.916;2023-07-09T09:27:05;30.80;46.60
76263;DHT22;65080;50.908;6.916;2023-07-09T09:29:33;30.90;46.70
76263;DHT22;65080;50.908;6.916;2023-07-09T09:32:17;31.00;46.60
76263;DHT22;65080;50.908;6.916;2023-07-09T09:34:47;31.00;46.30
76263;DHT22;65080;50.908;6.916;2023-07-09T09:37:24;31.10;46.50
76263;DHT22;65080;50.908;6.916;2023-07-09T09:39:54;31.10;46.30
76263;DHT22;65080;50.908;6.916;2023-07-09T09:42:40;31.20;46.20
76263;DHT22;65080;50.908;6.916;2023-07-09T09:45:15;31.30;46.10
76263;DHT22;65080;50.908;6.916;2023-07-09T09:47:44;31.40;45.70
76263;DHT22;65080;50.908;6.916;2023-07-09T09:50:14;31.50;45.60
76263;DHT22;65080;50.908;6.916;2023-07-09T09:52:45;31.60;45.30
76263;DHT22;65080;50.908;6.916;2023-07-09T09:55:18;31.70;45.10
76263;DHT22;65080;50.908;6.916;2023-07-09T09:57:50;31.80;45.00
76263;DHT22;65080;50.908;6.916;2023-07-09T10:00:23;31.90;45.00
76263;DHT22;65080;50.908;6.916;2023-07-09T10:02:57;32.00;45.00
76263;DHT22;65080;50.908;6.916;2023-07-09T10:05:31;32.10;44.80
76263;DHT22;65080;50.908;6.916;2023-07-09T10:08:06;32.20;44.70
76263;DHT22;65080;50.908;6.916;2023-07-09T10:10:36;32.30;44.40
76263;DHT22;65080;50.908;6.916;2023-07-09T10:13:10;32.30;44.40
76263;DHT22;65080;50.908;6.916;2023-07-09T10:15:51;32.50;44.50
76263;DHT22;65080;50.908;6.916;2023-07-09T10:18:33;32.50;44.30
76263;DHT22;65080;50.908;6.916;2023-07-09T10:21:10;32.60;44.20
76263;DHT22;65080;50.908;6.916;2023-07-09T10:23:51;32.60;44.00
76263;DHT22;65080;50.908;6.916;2023-07-09T10:26:31;32.70;43.80
76263;DHT22;65080;50.908;6.916;2023-07-09T10:29:17;32.80;43.70
76263;DHT22;65080;50.908;6.916;2023-07-09T10:31:56;32.90;43.40
76263;DHT22;65080;50.908;6.916;2023-07-09T10:34:34;33.00;43.20
76263;DHT22;65080;50.908;6.916;2023-07-09T10:37:25;33.20;43.00
76263;DHT22;65080;50.908;6.916;2023-07-09T10:39:58;33.30;42.60
76263;DHT22;65080;50.908;6.916;2023-07-09T10:42:30;33.40;42.60
76263;DHT22;65080;50.908;6.916;2023-07-09T10:45:16;33.40;42.10
76263;DHT22;65080;50.908;6.916;2023-07-09T10:47:51;33.60;41.90
76263;DHT22;65080;50.908;6.916;2023-07-09T10:50:27;33.70;41.40
76263;DHT22;65080;50.908;6.916;2023-07-09T10:53:00;33.80;41.00
76263;DHT22;65080;50.908;6.916;2023-07-09T10:55:43;33.80;41.00
76263;DHT22;65080;50.908;6.916;2023-07-09T10:58:25;33.80;40.60
76263;DHT22;65080;50.908;6.916;2023-07-09T11:00:56;33.90;40.50
76263;DHT22;65080;50.908;6.916;2023-07-09T11:03:35;33.90;40.40
76263;DHT22;65080;50.908;6.916;2023-07-09T11:06:13;34.10;40.10
76263;DHT22;65080;50.908;6.916;2023-07-09T11:08:42;34.10;39.90
76263;DHT22;65080;50.908;6.916;2023-07-09T11:11:20;34.20;39.90
76263;DHT22;65080;50.908;6.916;2023-07-09T11:13:53;34.30;39.80
76263;DHT22;65080;50.908;6.916;2023-07-09T11:16:28;34.40;39.70
76263;DHT22;65080;50.908;6.916;2023-07-09T11:18:59;34.50;39.20
76263;DHT22;65080;50.908;6.916;2023-07-09T11:21:28;34.60;39.00
76263;DHT22;65080;50.908;6.916;2023-07-09T11:23:58;34.60;38.70
76263;DHT22;65080;50.908;6.916;2023-07-09T11:26:30;34.70;38.50
76263;DHT22;65080;50.908;6.916;2023-07-09T11:29:14;34.80;38.10
76263;DHT22;65080;50.908;6.916;2023-07-09T11:31:44;34.90;37.30
76263;DHT22;65080;50.908;6.916;2023-07-09T11:34:17;35.00;37.20
76263;DHT22;65080;50.908;6.916;2023-07-09T11:36:49;35.20;37.00
76263;DHT22;65080;50.908;6.916;2023-07-09T11:39:20;35.30;36.70
76263;DHT22;65080;50.908;6.916;2023-07-09T11:41:50;35.40;35.60
76263;DHT22;65080;50.908;6.916;2023-07-09T11:44:20;35.60;34.60
76263;DHT22;65080;50.908;6.916;2023-07-09T11:47:19;35.70;33.70
76263;DHT22;65080;50.908;6.916;2023-07-09T11:49:54;35.80;32.30
76263;DHT22;65080;50.908;6.916;2023-07-09T11:52:28;35.90;32.00
76263;DHT22;65080;50.908;6.916;2023-07-09T11:55:02;36.00;31.30
76263;DHT22;65080;50.908;6.916;2023-07-09T11:57:32;36.00;31.10
76263;DHT22;65080;50.908;6.916;2023-07-09T12:00:00;36.10;31.00
76263;DHT22;65080;50.908;6.916;2023-07-09T12:02:33;36.10;30.70
76263;DHT22;65080;50.908;6.916;2023-07-09T12:05:02;36.30;30.20
76263;DHT22;65080;50.908;6.916;2023-07-09T12:07:32;36.40;30.00
76263;DHT22;65080;50.908;6.916;2023-07-09T12:10:03;36.50;29.70
76263;DHT22;65080;50.908;6.916;2023-07-09T12:12:42;36.60;29.40
76263;DHT22;65080;50.908;6.916;2023-07-09T12:15:16;36.60;29.40
76263;DHT22;65080;50.908;6.916;2023-07-09T12:17:56;36.60;29.30
76263;DHT22;65080;50.908;6.916;2023-07-09T12:20:25;36.60;29.30
76263;DHT22;65080;50.908;6.916;2023-07-09T12:22:54;36.50;29.40
76263;DHT22;65080;50.908;6.916;2023-07-09T12:25:24;36.50;29.50
76263;DHT22;65080;50.908;6.916;2023-07-09T12:27:55;36.40;29.40
76263;DHT22;65080;50.908;6.916;2023-07-09T12:30:23;36.40;29.50
76263;DHT22;65080;50.908;6.916;2023-07-09T12:32:51;36.40;29.40
76263;DHT22;65080;50.908;6.916;2023-07-09T12:35:20;36.30;29.40
76263;DHT22;65080;50.908;6.916;2023-07-09T12:37:51;36.30;29.50
76263;DHT22;65080;50.908;6.916;2023-07-09T12:40:22;36.20;29.70
76263;DHT22;65080;50.908;6.916;2023-07-09T12:42:52;36.20;29.80
76263;DHT22;65080;50.908;6.916;2023-07-09T12:45:23;36.20;29.90
76263;DHT22;65080;50.908;6.916;2023-07-09T12:47:52;36.30;30.00
76263;DHT22;65080;50.908;6.916;2023-07-09T12:50:32;36.30;30.10
76263;DHT22;65080;50.908;6.916;2023-07-09T12:53:03;36.40;29.90
76263;DHT22;65080;50.908;6.916;2023-07-09T12:55:38;36.40;29.90
76263;DHT22;65080;50.908;6.916;2023-07-09T12:58:10;36.40;29.80
76263;DHT22;65080;50.908;6.916;2023-07-09T13:00:40;36.40;29.90
76263;DHT22;65080;50.908;6.916;2023-07-09T13:03:13;36.40;29.90
76263;DHT22;65080;50.908;6.916;2023-07-09T13:05:52;36.40;29.90
76263;DHT22;65080;50.908;6.916;2023-07-09T13:08:20;36.50;29.70
76263;DHT22;65080;50.908;6.916;2023-07-09T13:10:49;36.40;29.80
76263;DHT22;65080;50.908;6.916;2023-07-09T13:13:20;36.40;29.80
76263;DHT22;65080;50.908;6.916;2023-07-09T13:15:52;36.40;29.90
76263;DHT22;65080;50.908;6.916;2023-07-09T13:18:24;36.40;30.30
76263;DHT22;65080;50.908;6.916;2023-07-09T13:20:54;36.30;30.00
76263;DHT22;65080;50.908;6.916;2023-07-09T13:23:24;36.20;30.00
76263;DHT22;65080;50.908;6.916;2023-07-09T13:25:54;36.20;30.20
76263;DHT22;65080;50.908;6.916;2023-07-09T13:28:27;36.20;30.10
76263;DHT22;65080;50.908;6.916;2023-07-09T13:31:00;36.10;30.00
76263;DHT22;65080;50.908;6.916;2023-07-09T13:33:29;36.10;30.10
76263;DHT22;65080;50.908;6.916;2023-07-09T13:35:57;36.00;30.30
76263;DHT22;65080;50.908;6.916;2023-07-09T13:38:25;35.90;30.40
76263;DHT22;65080;50.908;6.916;2023-07-09T13:40:56;35.90;30.30
76263;DHT22;65080;50.908;6.916;2023-07-09T13:43:28;35.80;30.10
76263;DHT22;65080;50.908;6.916;2023-07-09T13:46:00;35.80;30.00
76263;DHT22;65080;50.908;6.916;2023-07-09T13:48:31;35.70;30.00
76263;DHT22;65080;50.908;6.916;2023-07-09T13:51:01;35.70;30.10
76263;DHT22;65080;50.908;6.916;2023-07-09T13:53:31;35.70;30.30
76263;DHT22;65080;50.908;6.916;2023-07-09T13:56:00;35.70;30.40
76263;DHT22;65080;50.908;6.916;2023-07-09T13:58:28;35.70;30.50
76263;DHT22;65080;50.908;6.916;2023-07-09T14:00:59;35.60;30.40
76263;DHT22;65080;50.908;6.916;2023-07-09T14:03:35;35.70;29.90
76263;DHT22;65080;50.908;6.916;2023-07-09T14:06:03;35.70;29.80
76263;DHT22;65080;50.908;6.916;2023-07-09T14:08:32;35.70;29.70
76263;DHT22;65080;50.908;6.916;2023-07-09T14:11:00;35.70;30.00
76263;DHT22;65080;50.908;6.916;2023-07-09T14:13:30;35.60;31.10
76263;DHT22;65080;50.908;6.916;2023-07-09T14:16:01;35.40;32.20
76263;DHT22;65080;50.908;6.916;2023-07-09T14:18:30;35.00;33.10
76263;DHT22;65080;50.908;6.916;2023-07-09T14:20:58;34.80;33.90
76263;DHT22;65080;50.908;6.916;2023-07-09T14:23:27;34.50;34.40
76263;DHT22;65080;50.908;6.916;2023-07-09T14:25:57;34.20;34.90
76263;DHT22;65080;50.908;6.916;2023-07-09T14:28:25;33.90;35.30
76263;DHT22;65080;50.908;6.916;2023-07-09T14:30:53;33.60;35.70
76263;DHT22;65080;50.908;6.916;2023-07-09T14:33:23;33.30;36.10
76263;DHT22;65080;50.908;6.916;2023-07-09T14:35:52;33.00;36.60
76263;DHT22;65080;50.908;6.916;2023-07-09T14:38:21;32.80;37.40
76263;DHT22;65080;50.908;6.916;2023-07-09T14:40:51;32.20;38.80
76263;DHT22;65080;50.908;6.916;2023-07-09T14:43:20;31.60;40.80
76263;DHT22;65080;50.908;6.916;2023-07-09T14:45:49;31.00;42.90
76263;DHT22;65080;50.908;6.916;2023-07-09T14:48:19;30.40;45.00
76263;DHT22;65080;50.908;6.916;2023-07-09T14:50:49;29.70;47.10
76263;DHT22;65080;50.908;6.916;2023-07-09T14:53:21;29.20;48.70
76263;DHT22;65080;50.908;6.916;2023-07-09T14:55:51;28.80;50.40
76263;DHT22;65080;50.908;6.916;2023-07-09T14:58:21;28.30;51.80
76263;DHT22;65080;50.908;6.916;2023-07-09T15:00:50;27.90;53.60
76263;DHT22;65080;50.908;6.916;2023-07-09T15:03:20;27.50;54.90
76263;DHT22;65080;50.908;6.916;2023-07-09T15:05:51;27.30;56.00
76263;DHT22;65080;50.908;6.916;2023-07-09T15:08:24;27.00;56.70
76263;DHT22;65080;50.908;6.916;2023-07-09T15:10:53;26.90;57.60
76263;DHT22;65080;50.908;6.916;2023-07-09T15:13:27;26.60;58.20
76263;DHT22;65080;50.908;6.916;2023-07-09T15:15:57;26.70;58.90
76263;DHT22;65080;50.908;6.916;2023-07-09T15:18:25;26.50;58.90
76263;DHT22;65080;50.908;6.916;2023-07-09T15:20:56;26.50;59.40
76263;DHT22;65080;50.908;6.916;2023-07-09T15:23:25;26.50;60.00
76263;DHT22;65080;50.908;6.916;2023-07-09T15:25:55;26.50;60.40
76263;DHT22;65080;50.908;6.916;2023-07-09T15:28:23;26.50;60.80
76263;DHT22;65080;50.908;6.916;2023-07-09T15:30:51;26.50;61.30
76263;DHT22;65080;50.908;6.916;2023-07-09T15:33:20;26.50;61.70
76263;DHT22;65080;50.908;6.916;2023-07-09T15:35:49;26.50;62.20
76263;DHT22;65080;50.908;6.916;2023-07-09T15:38:27;26.60;62.50
76263;DHT22;65080;50.908;6.916;2023-07-09T15:40:56;26.60;63.00
76263;DHT22;65080;50.908;6.916;2023-07-09T15:43:25;26.60;62.80
76263;DHT22;65080;50.908;6.916;2023-07-09T15:45:56;26.70;63.10
76263;DHT22;65080;50.908;6.916;2023-07-09T15:48:27;26.70;63.20
76263;DHT22;65080;50.908;6.916;2023-07-09T15:50:58;26.80;63.30
76263;DHT22;65080;50.908;6.916;2023-07-09T15:53:27;26.90;63.30